createdAt,value
2018-11-12T00:01:42.640Z,1.60
2018-11-12T00:04:12.917Z,3.33
2018-11-12T00:06:42.750Z,2.23
2018-11-12T00:09:11.925Z,2.37
2018-11-12T00:11:41.941Z,2.27
2018-11-12T00:14:13.822Z,2.33
2018-11-12T00:16:45.040Z,2.33
2018-11-12T00:19:14.736Z,3.07
2018-11-12T00:21:43.935Z,1.80
2018-11-12T00:24:13.397Z,2.10
2018-11-12T00:26:44.027Z,1.80
2018-11-12T00:29:13.319Z,2.63
2018-11-12T00:31:43.569Z,1.93
2018-11-12T00:34:13.791Z,2.53
2018-11-12T00:36:43.007Z,2.00
2018-11-12T00:39:13.087Z,2.43
2018-11-12T00:41:43.180Z,2.27
2018-11-12T00:44:13.880Z,2.50
2018-11-12T00:46:44.282Z,2.50
2018-11-12T00:49:13.516Z,2.40
2018-11-12T00:51:42.833Z,3.40
2018-11-12T00:54:15.011Z,2.80
2018-11-12T00:56:45.760Z,2.27
2018-11-12T00:59:15.122Z,2.57
2018-11-12T01:01:44.360Z,4.20
2018-11-12T01:04:14.499Z,2.30
2018-11-12T01:06:44.716Z,2.90
2018-11-12T01:09:14.184Z,2.70
2018-11-12T01:11:45.036Z,2.77
2018-11-12T01:14:15.142Z,3.30
2018-11-12T01:16:44.428Z,2.27
2018-11-12T01:19:14.055Z,2.20
2018-11-12T01:21:43.609Z,3.53
2018-11-12T01:24:13.724Z,1.63
2018-11-12T01:26:43.807Z,4.63
2018-11-12T01:29:13.501Z,3.83
2018-11-12T01:31:43.223Z,1.70
2018-11-12T01:34:12.718Z,2.60
2018-11-12T01:36:42.958Z,1.90
2018-11-12T01:39:13.879Z,2.70
2018-11-12T01:41:43.669Z,2.37
2018-11-12T01:44:13.984Z,2.20
2018-11-12T01:46:43.223Z,2.33
2018-11-12T01:49:12.401Z,2.60
2018-11-12T01:51:41.777Z,3.03
2018-11-12T01:54:11.154Z,2.17
2018-11-12T01:56:40.548Z,2.50
2018-11-12T01:59:09.842Z,1.53
2018-11-12T02:01:40.781Z,2.30
2018-11-12T02:04:09.861Z,2.30
2018-11-12T02:06:39.100Z,2.30
2018-11-12T02:09:09.777Z,2.70
2018-11-12T02:11:39.591Z,2.57
2018-11-12T02:14:09.611Z,2.73
2018-11-12T02:16:39.580Z,3.53
2018-11-12T02:19:11.849Z,2.00
2018-11-12T02:21:41.278Z,3.40
2018-11-12T02:24:10.374Z,2.87
2018-11-12T02:26:41.546Z,2.80
2018-11-12T02:29:10.766Z,3.60
2018-11-12T02:31:40.316Z,3.63
2018-11-12T02:34:10.045Z,3.10
2018-11-12T02:36:39.719Z,3.10
2018-11-12T02:39:09.754Z,2.90
2018-11-12T02:41:39.223Z,4.23
2018-11-12T02:44:09.046Z,2.73
2018-11-12T02:46:38.789Z,6.93
2018-11-12T02:49:08.687Z,2.00
2018-11-12T02:51:38.283Z,4.23
2018-11-12T02:54:08.368Z,2.20
2018-11-12T02:56:39.112Z,2.33
2018-11-12T02:59:08.201Z,2.30
2018-11-12T03:01:37.848Z,3.13
2018-11-12T03:04:07.056Z,1.77
2018-11-12T03:06:36.307Z,1.80
2018-11-12T03:09:09.563Z,2.90
2018-11-12T03:11:39.661Z,3.90
2018-11-12T03:14:09.340Z,2.40
2018-11-12T03:16:39.047Z,3.73
2018-11-12T03:19:08.525Z,3.17
2018-11-12T03:21:37.756Z,3.53
2018-11-12T03:24:12.781Z,2.97
2018-11-12T03:26:42.075Z,3.13
2018-11-12T03:29:11.354Z,4.03
2018-11-12T03:31:40.624Z,2.20
2018-11-12T03:34:09.896Z,5.37
2018-11-12T03:36:39.158Z,3.87
2018-11-12T03:39:10.324Z,2.73
2018-11-12T03:41:40.109Z,3.40
2018-11-12T03:44:09.581Z,2.60
2018-11-12T03:46:39.595Z,2.40
2018-11-12T03:49:08.886Z,2.80
2018-11-12T03:51:38.643Z,1.80
2018-11-12T03:54:07.787Z,1.80
2018-11-12T03:56:37.069Z,1.83
2018-11-12T03:59:07.714Z,3.13
2018-11-12T04:01:42.251Z,2.70
2018-11-12T04:04:11.942Z,87.87
2018-11-12T04:06:41.654Z,32.00
2018-11-12T04:09:12.036Z,15.30
2018-11-12T04:11:43.953Z,2.70
2018-11-12T04:14:13.758Z,6.53
2018-11-12T04:16:45.765Z,3.27
2018-11-12T04:19:15.653Z,2.83
2018-11-12T04:21:45.121Z,3.33
2018-11-12T04:24:15.165Z,3.70
2018-11-12T04:26:45.274Z,3.57
2018-11-12T04:29:14.358Z,2.97
2018-11-12T04:31:43.823Z,3.83
2018-11-12T04:34:13.447Z,3.20
2018-11-12T04:36:42.687Z,3.73
2018-11-12T04:39:12.647Z,4.47
2018-11-12T04:41:41.828Z,3.00
2018-11-12T04:44:11.005Z,3.27
2018-11-12T04:46:41.135Z,4.80
2018-11-12T04:49:10.330Z,2.87
2018-11-12T04:51:39.693Z,4.73
2018-11-12T04:54:08.918Z,4.57
2018-11-12T04:56:39.236Z,3.27
2018-11-12T04:59:08.394Z,6.47
2018-11-12T05:01:38.933Z,9.07
2018-11-12T05:04:08.729Z,6.17
2018-11-12T05:06:38.105Z,4.97
2018-11-12T05:09:09.060Z,4.20
2018-11-12T05:11:38.363Z,4.33
2018-11-12T05:14:07.910Z,3.57
2018-11-12T05:16:37.437Z,7.77
2018-11-12T05:19:07.134Z,6.33
2018-11-12T05:21:36.315Z,4.40
2018-11-12T05:24:06.513Z,6.60
2018-11-12T05:26:35.894Z,4.70
2018-11-12T05:29:05.841Z,4.57
2018-11-12T05:31:35.651Z,5.13
2018-11-12T05:34:05.881Z,4.27
2018-11-12T05:36:35.900Z,3.57
2018-11-12T05:39:09.077Z,3.83
2018-11-12T05:41:39.028Z,5.40
2018-11-12T05:44:08.865Z,6.43
2018-11-12T05:46:38.665Z,6.17
2018-11-12T05:49:07.833Z,6.13
2018-11-12T05:51:37.041Z,7.00
2018-11-12T05:54:06.685Z,7.27
2018-11-12T05:56:35.769Z,6.53
2018-11-12T05:59:05.184Z,4.93
2018-11-12T06:01:35.060Z,5.77
2018-11-12T06:04:04.304Z,5.93
2018-11-12T06:06:33.557Z,6.23
2018-11-12T06:09:03.616Z,7.63
2018-11-12T06:11:32.774Z,8.60
2018-11-12T06:14:02.106Z,7.17
2018-11-12T06:16:32.021Z,7.20
2018-11-12T06:19:01.799Z,6.03
2018-11-12T06:21:31.784Z,7.93
2018-11-12T06:24:00.931Z,8.13
2018-11-12T06:26:30.721Z,8.83
2018-11-12T06:29:00.872Z,7.77
2018-11-12T06:31:30.069Z,9.20
2018-11-12T06:34:00.017Z,8.97
2018-11-12T06:36:29.475Z,6.20
2018-11-12T06:38:58.705Z,7.47
2018-11-12T06:41:28.811Z,6.37
2018-11-12T06:43:58.090Z,6.87
2018-11-12T06:46:28.202Z,7.80
2018-11-12T06:48:57.564Z,8.43
2018-11-12T06:51:27.460Z,8.57
2018-11-12T06:53:57.213Z,144.50
2018-11-12T06:56:26.660Z,224.80
2018-11-12T06:58:56.365Z,189.37
2018-11-12T07:01:25.688Z,188.43
2018-11-12T07:03:56.460Z,19.03
2018-11-12T07:06:25.709Z,25.87
2018-11-12T07:08:55.602Z,16.00
2018-11-12T07:11:24.944Z,20.33
2018-11-12T07:13:54.973Z,8.00
2018-11-12T07:16:24.181Z,7.83
2018-11-12T07:18:53.376Z,6.20
2018-11-12T07:21:22.622Z,6.63
2018-11-12T07:23:51.746Z,9.83
2018-11-12T07:26:21.565Z,7.07
2018-11-12T07:28:51.971Z,7.90
2018-11-12T07:31:22.054Z,8.13
2018-11-12T07:33:51.332Z,6.90
2018-11-12T07:36:21.489Z,6.60
2018-11-12T07:38:50.850Z,6.60
2018-11-12T07:41:20.647Z,6.13
2018-11-12T07:43:51.640Z,5.97
2018-11-12T07:46:20.889Z,7.20
2018-11-12T07:48:50.236Z,7.67
2018-11-12T07:51:20.330Z,6.87
2018-11-12T07:53:49.534Z,7.00
2018-11-12T07:56:19.643Z,6.57
2018-11-12T07:58:48.718Z,5.93
2018-11-12T08:01:18.025Z,8.10
2018-11-12T08:03:47.501Z,6.20
2018-11-12T08:06:17.206Z,10.20
2018-11-12T08:08:46.525Z,6.00
2018-11-12T08:11:15.759Z,5.47
2018-11-12T08:13:44.938Z,6.27
2018-11-12T08:16:14.083Z,6.50
2018-11-12T08:18:43.476Z,7.17
2018-11-12T08:21:12.670Z,6.80
2018-11-12T08:23:41.941Z,7.30
2018-11-12T08:26:11.677Z,7.07
2018-11-12T08:28:41.279Z,6.37
2018-11-12T08:31:10.624Z,6.90
2018-11-12T08:33:40.896Z,5.80
2018-11-12T08:36:11.247Z,5.10
2018-11-12T08:38:40.628Z,6.53
2018-11-12T08:41:09.863Z,4.80
2018-11-12T08:43:39.451Z,4.83
2018-11-12T08:46:08.717Z,5.67
2018-11-12T08:48:38.929Z,4.10
2018-11-12T08:51:09.107Z,3.80
2018-11-12T08:53:39.099Z,4.23
2018-11-12T08:56:08.397Z,3.63
2018-11-12T08:58:37.812Z,4.17
2018-11-12T09:01:07.030Z,3.57
2018-11-12T09:03:36.257Z,4.07
2018-11-12T09:06:06.034Z,4.30
2018-11-12T09:08:35.164Z,5.20
2018-11-12T09:11:04.469Z,5.73
2018-11-12T09:13:33.933Z,3.47
2018-11-12T09:16:02.831Z,3.70
2018-11-12T09:18:32.028Z,4.53
2018-11-12T09:21:02.226Z,3.67
2018-11-12T09:23:31.401Z,3.90
2018-11-12T09:26:00.719Z,3.93
2018-11-12T09:28:30.068Z,3.27
2018-11-12T09:31:00.619Z,3.47
2018-11-12T09:33:29.849Z,3.93
2018-11-12T09:35:59.087Z,3.87
2018-11-12T09:38:28.224Z,3.33
2018-11-12T09:40:57.693Z,4.17
2018-11-12T09:43:26.907Z,5.27
2018-11-12T09:45:56.829Z,3.40
2018-11-12T09:48:26.014Z,4.83
2018-11-12T09:50:55.191Z,5.00
2018-11-12T09:53:24.286Z,5.13
2018-11-12T09:55:53.449Z,4.17
2018-11-12T09:58:22.620Z,3.70
2018-11-12T10:00:53.817Z,5.53
2018-11-12T10:05:22.288Z,4.43
2018-11-12T10:07:57.325Z,4.77
2018-11-12T10:10:59.197Z,3.07
2018-11-12T10:13:28.858Z,4.93
2018-11-12T10:15:59.994Z,3.53
2018-11-12T10:18:26.915Z,4.90
2018-11-12T10:20:56.115Z,3.87
2018-11-12T10:23:25.264Z,3.00
2018-11-12T10:25:54.460Z,4.63
2018-11-12T10:28:24.066Z,4.97
2018-11-12T10:30:53.240Z,3.57
2018-11-12T10:33:22.797Z,3.03
2018-11-12T10:35:52.029Z,2.47
2018-11-12T10:38:21.198Z,5.30
2018-11-12T10:40:50.390Z,3.60
2018-11-12T10:43:19.532Z,3.67
2018-11-12T10:45:49.727Z,4.20
2018-11-12T10:48:19.383Z,3.13
2018-11-12T10:50:56.249Z,7.87
2018-11-12T10:53:20.090Z,3.40
2018-11-12T10:55:49.603Z,3.10
2018-11-12T10:58:18.756Z,3.30
2018-11-12T11:00:53.751Z,3.20
2018-11-12T11:04:30.572Z,2.80
2018-11-12T11:07:01.465Z,3.37
2018-11-12T11:09:31.831Z,4.10
2018-11-12T11:12:02.090Z,4.97
2018-11-12T11:14:31.530Z,3.93
2018-11-12T11:17:02.048Z,2.93
2018-11-12T11:19:31.734Z,2.97
2018-11-12T11:22:02.226Z,3.43
2018-11-12T11:24:32.033Z,7.33
2018-11-12T11:27:02.666Z,3.00
2018-11-12T11:29:32.737Z,3.53
2018-11-12T11:32:02.231Z,2.77
2018-11-12T11:34:31.668Z,2.53
2018-11-12T11:37:01.194Z,2.50
2018-11-12T11:39:30.573Z,3.27
2018-11-12T11:41:59.693Z,2.83
2018-11-12T11:44:28.986Z,3.90
2018-11-12T11:46:58.134Z,2.70
2018-11-12T11:49:27.754Z,4.30
2018-11-12T11:51:56.884Z,2.67
2018-11-12T11:54:26.131Z,2.73
2018-11-12T11:56:55.366Z,3.77
2018-11-12T11:59:24.674Z,2.20
2018-11-12T12:01:53.866Z,2.67
2018-11-12T12:04:23.030Z,2.10
2018-11-12T12:06:52.301Z,3.30
2018-11-12T12:09:22.147Z,2.57
2018-11-12T12:11:52.016Z,2.43
2018-11-12T12:14:21.192Z,2.43
2018-11-12T12:16:51.144Z,2.07
2018-11-12T12:19:20.410Z,2.13
2018-11-12T12:21:49.671Z,2.77
2018-11-12T12:24:19.319Z,2.40
2018-11-12T12:26:49.225Z,2.00
2018-11-12T12:29:19.100Z,4.03
2018-11-12T12:31:48.464Z,3.37
2018-11-12T12:34:17.668Z,2.67
2018-11-12T12:36:47.144Z,2.17
2018-11-12T12:39:16.199Z,2.53
2018-11-12T12:41:47.129Z,2.23
2018-11-12T12:44:16.284Z,2.30
2018-11-12T12:46:45.768Z,2.87
2018-11-12T12:49:14.922Z,2.70
2018-11-12T12:51:44.792Z,2.63
2018-11-12T12:54:13.895Z,2.03
2018-11-12T12:56:43.240Z,2.37
2018-11-12T12:59:13.014Z,2.20
2018-11-12T13:01:42.969Z,3.47
2018-11-12T13:04:12.347Z,3.07
2018-11-12T13:06:41.750Z,2.57
2018-11-12T13:09:11.213Z,2.70
2018-11-12T13:11:41.033Z,2.93
2018-11-12T13:14:10.228Z,2.70
2018-11-12T13:16:39.721Z,3.00
2018-11-12T13:19:08.858Z,2.00
2018-11-12T13:21:38.153Z,2.17
2018-11-12T13:24:07.747Z,2.67
2018-11-12T13:26:36.903Z,1.87
2018-11-12T13:29:06.513Z,2.77
2018-11-12T13:31:36.040Z,1.93
2018-11-12T13:34:05.598Z,4.37
2018-11-12T13:36:34.793Z,3.57
2018-11-12T13:39:06.651Z,3.00
2018-11-12T13:41:37.705Z,2.33
2018-11-12T13:44:07.703Z,2.07
2018-11-12T13:46:42.787Z,2.03
2018-11-12T13:49:11.999Z,3.87
2018-11-12T13:51:41.364Z,1.63
2018-11-12T13:54:11.406Z,2.23
2018-11-12T13:56:42.678Z,2.47
2018-11-12T13:59:12.023Z,1.73
2018-11-12T14:01:41.496Z,2.37
2018-11-12T14:04:10.702Z,1.73
2018-11-12T14:06:40.076Z,1.87
2018-11-12T14:09:11.094Z,2.27
2018-11-12T14:11:40.587Z,1.63
2018-11-12T14:14:09.847Z,4.43
2018-11-12T14:16:40.913Z,2.23
2018-11-12T14:19:10.219Z,1.93
2018-11-12T14:21:39.935Z,1.83
2018-11-12T14:24:09.076Z,2.50
2018-11-12T14:26:39.821Z,5.90
2018-11-12T14:29:09.291Z,2.20
2018-11-12T14:31:38.740Z,3.13
2018-11-12T14:34:08.016Z,1.60
2018-11-12T14:36:37.254Z,4.43
2018-11-12T14:39:09.443Z,3.77
2018-11-12T14:41:38.720Z,2.23
2018-11-12T14:44:08.163Z,1.50
2018-11-12T14:46:38.322Z,1.70
2018-11-12T14:49:07.510Z,2.10
2018-11-12T14:51:36.952Z,2.27
2018-11-12T14:54:06.756Z,2.40
2018-11-12T14:56:36.605Z,2.37
2018-11-12T14:59:06.456Z,2.40
2018-11-12T15:01:35.743Z,1.53
2018-11-12T15:04:05.171Z,2.53
2018-11-12T15:06:35.133Z,2.57
2018-11-12T15:09:06.574Z,1.70
2018-11-12T15:11:35.704Z,3.67
2018-11-12T15:14:04.888Z,2.13
2018-11-12T15:16:34.346Z,2.53
2018-11-12T15:19:03.692Z,1.77
2018-11-12T15:21:33.087Z,1.87
2018-11-12T15:24:02.705Z,3.80
2018-11-12T15:26:32.010Z,7.70
2018-11-12T15:29:01.282Z,2.53
2018-11-12T15:31:31.111Z,3.97
2018-11-12T15:34:00.397Z,1.80
2018-11-12T15:36:29.966Z,3.13
2018-11-12T15:38:59.045Z,1.70
2018-11-12T15:41:28.198Z,1.97
2018-11-12T15:43:57.903Z,3.27
2018-11-12T15:46:27.213Z,1.83
2018-11-12T15:48:56.523Z,3.33
2018-11-12T15:51:25.691Z,2.20
2018-11-12T15:53:55.141Z,3.53
2018-11-12T15:56:24.287Z,18.57
2018-11-12T15:58:53.466Z,4.57
2018-11-12T16:01:22.597Z,5.83
2018-11-12T16:03:51.742Z,3.20
2018-11-12T16:06:21.286Z,2.93
2018-11-12T16:08:50.338Z,4.00
2018-11-12T16:11:19.430Z,2.77
2018-11-12T16:13:48.678Z,3.10
2018-11-12T16:16:17.843Z,4.00
2018-11-12T16:18:47.150Z,2.13
2018-11-12T16:21:16.292Z,8.40
2018-11-12T16:23:45.526Z,2.63
2018-11-12T16:26:14.814Z,2.70
2018-11-12T16:28:44.195Z,3.33
2018-11-12T16:31:13.340Z,2.47
2018-11-12T16:33:42.494Z,2.23
2018-11-12T16:36:11.740Z,3.63
2018-11-12T16:38:41.233Z,3.13
2018-11-12T16:41:10.424Z,2.50
2018-11-12T16:46:13.988Z,3.17
2018-11-12T16:48:43.137Z,2.03
2018-11-12T16:51:12.341Z,2.17
2018-11-12T16:53:41.707Z,3.20
2018-11-12T16:56:11.482Z,7.80
2018-11-12T16:58:40.717Z,2.83
2018-11-12T17:01:09.939Z,4.93
2018-11-12T17:03:41.515Z,3.97
2018-11-12T17:06:13.683Z,2.93
2018-11-12T17:08:43.562Z,2.37
2018-11-12T17:11:12.740Z,3.50
2018-11-12T17:13:42.049Z,3.20
2018-11-12T17:16:11.216Z,2.37
2018-11-12T17:18:41.311Z,3.03
2018-11-12T17:21:11.517Z,2.83
2018-11-12T17:23:41.344Z,3.23
2018-11-12T17:26:10.654Z,3.73
2018-11-12T17:28:40.610Z,4.07
2018-11-12T17:31:09.770Z,2.33
2018-11-12T17:33:39.249Z,3.67
2018-11-12T17:36:08.866Z,2.27
2018-11-12T17:38:38.675Z,4.27
2018-11-12T17:41:08.422Z,4.00
2018-11-12T17:43:37.724Z,4.40
2018-11-12T17:46:07.283Z,4.30
2018-11-12T17:48:36.462Z,3.17
2018-11-12T17:51:05.991Z,2.23
2018-11-12T17:53:35.542Z,2.80
2018-11-12T17:56:05.195Z,4.63
2018-11-12T17:58:34.994Z,3.07
2018-11-12T18:01:05.509Z,4.50
2018-11-12T18:03:34.760Z,3.07
2018-11-12T18:06:05.203Z,4.60
2018-11-12T18:08:35.185Z,2.20
2018-11-12T18:11:05.111Z,2.53
2018-11-12T18:13:34.499Z,3.77
2018-11-12T18:16:03.758Z,2.30
2018-11-12T18:18:32.950Z,3.23
2018-11-12T18:21:02.216Z,3.00
2018-11-12T18:23:31.468Z,3.67
2018-11-12T18:26:00.889Z,3.50
2018-11-12T18:28:31.749Z,2.27
2018-11-12T18:31:01.906Z,2.97
2018-11-12T18:33:30.890Z,2.57
2018-11-12T18:36:00.105Z,2.40
2018-11-12T18:38:29.865Z,5.73
2018-11-12T18:40:59.042Z,95.70
2018-11-12T18:43:29.139Z,12.13
2018-11-12T18:45:58.474Z,5.97
2018-11-12T18:48:27.525Z,4.50
2018-11-12T18:50:57.015Z,3.43
2018-11-12T18:53:26.257Z,6.00
2018-11-12T18:55:55.461Z,3.40
2018-11-12T18:58:25.490Z,3.50
2018-11-12T19:00:54.730Z,5.17
2018-11-12T19:03:24.163Z,6.17
2018-11-12T19:05:53.900Z,5.83
2018-11-12T19:08:23.264Z,3.63
2018-11-12T19:10:52.612Z,3.43
2018-11-12T19:13:21.877Z,5.33
2018-11-12T19:15:51.920Z,3.70
2018-11-12T19:18:21.226Z,5.07
2018-11-12T19:20:50.405Z,3.97
2018-11-12T19:23:19.550Z,3.63
2018-11-12T19:25:48.919Z,4.30
2018-11-12T19:28:18.219Z,4.10
2018-11-12T19:30:48.063Z,5.93
2018-11-12T19:33:17.208Z,6.27
2018-11-12T19:35:46.682Z,5.67
2018-11-12T19:38:16.437Z,6.40
2018-11-12T19:40:45.726Z,5.63
2018-11-12T19:43:14.771Z,8.97
2018-11-12T19:45:43.984Z,5.80
2018-11-12T19:48:14.126Z,5.50
2018-11-12T19:50:43.229Z,4.53
2018-11-12T19:53:12.442Z,6.43
2018-11-12T19:55:41.624Z,5.50
2018-11-12T19:58:10.767Z,6.70
2018-11-12T20:00:40.519Z,6.93
2018-11-12T20:03:10.157Z,5.37
2018-11-12T20:05:40.100Z,7.07
2018-11-12T20:08:09.893Z,6.97
2018-11-12T20:10:40.285Z,7.30
2018-11-12T20:13:09.661Z,6.83
2018-11-12T20:15:39.155Z,6.83
2018-11-12T20:18:09.444Z,6.90
2018-11-12T20:20:38.916Z,8.33
2018-11-12T20:23:08.484Z,7.90
2018-11-12T20:25:37.777Z,7.07
2018-11-12T20:28:06.962Z,7.80
2018-11-12T20:30:38.955Z,6.07
2018-11-12T20:33:08.182Z,11.10
2018-11-12T20:35:38.134Z,8.73
2018-11-12T20:38:07.856Z,9.33
2018-11-12T20:40:37.038Z,7.53
2018-11-12T20:43:06.957Z,10.30
2018-11-12T20:45:36.248Z,8.53
2018-11-12T20:48:05.924Z,7.53
2018-11-12T20:50:35.079Z,9.57
2018-11-12T20:53:04.237Z,7.40
2018-11-12T20:55:34.150Z,7.70
2018-11-12T20:58:03.457Z,7.70
2018-11-12T21:00:32.729Z,8.53
2018-11-12T21:03:01.921Z,6.43
2018-11-12T21:05:31.566Z,8.30
2018-11-12T21:08:00.931Z,7.63
2018-11-12T21:10:30.090Z,8.33
2018-11-12T21:12:59.406Z,11.43
2018-11-12T21:15:28.663Z,8.53
2018-11-12T21:17:57.795Z,10.10
2018-11-12T21:20:27.732Z,9.43
2018-11-12T21:22:56.971Z,9.27
2018-11-12T21:25:26.988Z,9.80
2018-11-12T21:27:56.128Z,9.83
2018-11-12T21:30:26.782Z,8.20
2018-11-12T21:32:56.190Z,10.30
2018-11-12T21:35:28.154Z,9.97
2018-11-12T21:37:58.910Z,10.40
2018-11-12T21:40:30.211Z,10.50
2018-11-12T21:43:00.522Z,8.93
2018-11-12T21:45:31.121Z,10.80
2018-11-12T21:48:02.349Z,10.43
2018-11-12T21:50:33.057Z,11.03
2018-11-12T21:53:02.340Z,9.10
2018-11-12T21:55:33.824Z,15.07
2018-11-12T21:58:02.989Z,11.80
2018-11-12T22:00:33.288Z,10.80
2018-11-12T22:03:03.890Z,8.37
2018-11-12T22:05:33.869Z,10.87
2018-11-12T22:08:03.880Z,21.10
2018-11-12T22:10:35.517Z,11.93
2018-11-12T22:13:06.159Z,12.73
2018-11-12T22:15:37.315Z,14.83
2018-11-12T22:18:07.396Z,12.43
2018-11-12T22:20:36.797Z,11.40
2018-11-12T22:23:09.237Z,12.40
2018-11-12T22:25:42.148Z,10.67
2018-11-12T22:28:12.980Z,11.17
2018-11-12T22:30:43.095Z,10.93
2018-11-12T22:33:13.403Z,10.00
2018-11-12T22:35:43.264Z,10.07
2018-11-12T22:38:12.799Z,9.30
2018-11-12T22:40:42.271Z,9.87
2018-11-12T22:43:11.532Z,8.47
2018-11-12T22:45:40.785Z,9.57
2018-11-12T22:48:09.977Z,8.57
2018-11-12T22:50:39.345Z,8.57
2018-11-12T22:53:08.523Z,11.23
2018-11-12T22:55:37.798Z,9.17
2018-11-12T22:58:06.963Z,9.30
2018-11-12T23:00:38.822Z,10.80
2018-11-12T23:03:08.647Z,11.60
2018-11-12T23:05:38.640Z,9.23
2018-11-12T23:08:07.957Z,11.00
2018-11-12T23:10:38.436Z,10.63
2018-11-12T23:13:08.398Z,12.67
2018-11-12T23:15:38.995Z,11.57
2018-11-12T23:18:08.206Z,10.40
2018-11-12T23:20:38.126Z,170.90
2018-11-12T23:23:07.752Z,14.80
2018-11-12T23:25:37.060Z,14.93
2018-11-12T23:28:06.704Z,17.40
2018-11-12T23:30:36.116Z,12.87
2018-11-12T23:33:05.527Z,12.63
2018-11-12T23:35:34.740Z,15.03
2018-11-12T23:38:04.310Z,12.33
2018-11-12T23:40:33.406Z,11.00
2018-11-12T23:43:03.384Z,9.07
2018-11-12T23:45:32.538Z,12.90
2018-11-12T23:48:01.866Z,32.83
2018-11-12T23:50:31.643Z,14.13
2018-11-12T23:53:00.792Z,7.10
2018-11-12T23:55:30.075Z,7.33
2018-11-12T23:57:59.539Z,7.17
